56NK weather

Buffalo General Hospital Heliport
Buffalo, New York, United States

Public forecast

Using degrees Fahrenheit for public forecast. Weather courtesy of forecast.io.

Closest aviation weather report (METAR) to Buffalo General Hospital Heliport

Closest report is Buffalo Niagara International Airport, 6.4 nm (11.8 km) ENE. Retrieved 2019/10/16 17:54 UTC (12 minutes ago):

KBUF 161754Z 20009KT 10SM -RA FEW009 FEW032 OVC060 09/09 A2956 RMK AO2 SLP013 P0004 60072 T00940089 10139 20089 58018

Closest aviation forecast (TAF) to Buffalo General Hospital Heliport

Closest forecast is Buffalo Niagara International Airport, 6.4 nm (11.8 km) ENE. Retrieved 2019/10/16 18:24 UTC (0 seconds ago):

TAF KBUF 161723Z 1618/1718 22012KT 5SM -RA BR OVC015 FM162000 24014G20KT 6SM -SHRA BR OVC025 FM170200 26013G20KT P6SM VCSH OVC040 FM170600 26013G21KT P6SM -SHRA OVC015 FM171200 29018G28KT 6SM -SHRA OVC015 FM171500 29019G29KT 3SM SHRA BR OVC012